createdAt,value
2023-03-07T00:00:53.924Z,83.56
2023-03-07T00:01:53.905Z,83.66
2023-03-07T00:03:49.680Z,83.97
2023-03-07T00:04:50.688Z,84.28
2023-03-07T00:05:49.640Z,84.18
2023-03-07T00:06:49.625Z,83.76
2023-03-07T00:07:49.630Z,83.14
2023-03-07T00:08:49.604Z,83.14
2023-03-07T00:09:49.611Z,83.42
2023-03-07T00:10:49.590Z,83.04
2023-03-07T00:11:49.574Z,83.35
2023-03-07T00:12:49.580Z,83.04
2023-03-07T00:13:49.553Z,83.45
2023-03-07T00:14:49.543Z,83.31
2023-03-07T00:15:49.630Z,83.66
2023-03-07T00:16:49.520Z,83.45
2023-03-07T00:17:49.524Z,82.89
2023-03-07T00:18:49.533Z,83.35
2023-03-07T00:19:49.492Z,83.73
2023-03-07T00:20:49.572Z,84.25
2023-03-07T00:21:49.469Z,83.76
2023-03-07T00:22:49.493Z,83.62
2023-03-07T00:23:49.451Z,83.87
2023-03-07T00:24:49.441Z,83.31
2023-03-07T00:25:49.431Z,83.66
2023-03-07T00:26:49.419Z,83.97
2023-03-07T00:27:49.420Z,83.97
2023-03-07T00:28:49.419Z,84.18
2023-03-07T00:29:49.394Z,83.97
2023-03-07T00:30:49.381Z,83.52
2023-03-07T00:31:49.493Z,84.08
2023-03-07T00:32:49.360Z,84.08
2023-03-07T00:33:49.361Z,83.83
2023-03-07T00:34:49.337Z,83.62
2023-03-07T00:35:49.337Z,83.31
2023-03-07T00:36:49.320Z,83.25
2023-03-07T00:37:49.313Z,83.45
2023-03-07T00:38:49.311Z,83.62
2023-03-07T00:39:49.288Z,83.87
2023-03-07T00:40:49.276Z,83.10
2023-03-07T00:41:49.268Z,83.45
2023-03-07T00:42:49.254Z,83.73
2023-03-07T00:43:49.263Z,83.62
2023-03-07T00:44:49.237Z,83.76
2023-03-07T00:45:49.267Z,83.73
2023-03-07T00:46:49.219Z,84.04
2023-03-07T00:47:49.209Z,84.70
2023-03-07T00:48:49.205Z,84.39
2023-03-07T00:49:49.193Z,84.08
2023-03-07T00:50:49.172Z,84.77
2023-03-07T00:51:49.161Z,84.91
2023-03-07T00:52:49.150Z,85.33
2023-03-07T00:53:49.151Z,86.22
2023-03-07T00:54:49.128Z,86.16
2023-03-07T00:55:49.119Z,86.16
2023-03-07T00:56:49.105Z,86.06
2023-03-07T00:57:49.098Z,87.62
2023-03-07T00:58:49.103Z,88.98
2023-03-07T00:59:49.088Z,89.60
2023-03-07T01:00:49.113Z,90.58
2023-03-07T01:01:49.057Z,89.75
2023-03-07T01:02:49.054Z,90.47
2023-03-07T01:03:49.049Z,90.16
2023-03-07T01:04:49.029Z,91.31
2023-03-07T01:05:49.021Z,90.68
2023-03-07T01:06:49.014Z,92.40
2023-03-07T01:07:49.005Z,91.77
2023-03-07T01:08:48.998Z,92.03
2023-03-07T01:09:48.979Z,92.60
2023-03-07T01:10:48.959Z,92.71
2023-03-07T01:11:48.951Z,92.71
2023-03-07T01:12:48.943Z,92.18
2023-03-07T01:13:48.946Z,91.83
2023-03-07T01:14:48.920Z,92.14
2023-03-07T01:15:48.912Z,92.08
2023-03-07T01:16:48.969Z,92.14
2023-03-07T01:17:48.896Z,92.25
2023-03-07T01:18:48.896Z,91.35
2023-03-07T01:19:48.880Z,91.31
2023-03-07T01:20:48.868Z,91.46
2023-03-07T01:21:48.855Z,91.25
2023-03-07T01:22:48.844Z,92.14
2023-03-07T01:23:48.855Z,91.35
2023-03-07T01:24:48.826Z,91.31
2023-03-07T01:25:48.814Z,91.25
2023-03-07T01:26:48.804Z,90.93
2023-03-07T01:27:48.794Z,91.62
2023-03-07T01:28:48.794Z,91.62
2023-03-07T01:29:48.789Z,90.89
2023-03-07T01:30:48.763Z,91.83
2023-03-07T01:31:48.832Z,92.14
2023-03-07T01:32:48.845Z,92.03
2023-03-07T01:33:48.753Z,91.72
2023-03-07T01:34:48.731Z,91.10
2023-03-07T01:35:48.746Z,91.52
2023-03-07T01:36:48.725Z,91.31
2023-03-07T01:37:48.697Z,91.10
2023-03-07T01:38:48.694Z,91.10
2023-03-07T01:39:48.677Z,91.52
2023-03-07T01:40:48.661Z,91.20
2023-03-07T01:41:48.667Z,91.00
2023-03-07T01:42:48.638Z,91.20
2023-03-07T01:43:48.652Z,92.25
2023-03-07T01:44:48.619Z,92.14
2023-03-07T01:45:48.661Z,92.35
2023-03-07T01:46:48.604Z,92.14
2023-03-07T01:47:48.587Z,92.03
2023-03-07T01:48:48.592Z,92.35
2023-03-07T01:49:48.580Z,91.93
2023-03-07T01:50:48.564Z,92.14
2023-03-07T01:51:48.554Z,91.93
2023-03-07T01:52:48.537Z,92.03
2023-03-07T01:53:48.536Z,92.03
2023-03-07T01:54:48.528Z,91.83
2023-03-07T01:55:48.518Z,91.72
2023-03-07T01:56:48.491Z,92.35
2023-03-07T01:57:48.488Z,92.25
2023-03-07T01:58:48.476Z,92.46
2023-03-07T01:59:48.476Z,92.25
2023-03-07T02:00:48.451Z,92.14
2023-03-07T02:01:48.446Z,92.56
2023-03-07T02:02:48.425Z,92.56
2023-03-07T02:03:48.419Z,92.41
2023-03-07T02:04:48.414Z,92.03
2023-03-07T02:05:48.398Z,92.03
2023-03-07T02:06:48.390Z,91.89
2023-03-07T02:07:48.370Z,92.03
2023-03-07T02:08:48.365Z,92.46
2023-03-07T02:09:48.363Z,92.14
2023-03-07T02:10:48.345Z,92.46
2023-03-07T02:11:48.331Z,92.46
2023-03-07T02:12:48.320Z,92.77
2023-03-07T02:13:48.305Z,92.66
2023-03-07T02:14:48.309Z,92.77
2023-03-07T02:15:48.295Z,92.87
2023-03-07T02:16:48.280Z,92.62
2023-03-07T02:17:48.268Z,92.93
2023-03-07T02:18:48.263Z,93.08
2023-03-07T02:19:48.256Z,92.87
2023-03-07T02:20:48.239Z,93.18
2023-03-07T02:21:48.225Z,93.35
2023-03-07T02:22:48.222Z,93.71
2023-03-07T02:23:48.202Z,93.60
2023-03-07T02:24:48.205Z,93.40
2023-03-07T02:25:48.185Z,93.46
2023-03-07T02:26:48.181Z,93.71
2023-03-07T02:27:48.166Z,93.50
2023-03-07T02:28:48.154Z,93.50
2023-03-07T02:29:48.159Z,93.60
2023-03-07T02:30:48.165Z,93.60
2023-03-07T02:31:48.123Z,93.91
2023-03-07T02:32:48.113Z,93.66
2023-03-07T02:33:48.101Z,93.50
2023-03-07T02:34:48.106Z,93.50
2023-03-07T02:35:48.149Z,94.23
2023-03-07T02:36:48.072Z,93.66
2023-03-07T02:37:48.058Z,94.23
2023-03-07T02:38:48.050Z,94.12
2023-03-07T02:39:48.046Z,94.23
2023-03-07T02:40:48.028Z,94.85
2023-03-07T02:41:48.016Z,94.08
2023-03-07T02:42:48.010Z,94.39
2023-03-07T02:43:47.995Z,94.92
2023-03-07T02:44:47.999Z,94.96
2023-03-07T02:45:47.977Z,94.64
2023-03-07T02:46:47.969Z,94.60
2023-03-07T02:47:47.954Z,94.43
2023-03-07T02:48:47.941Z,94.85
2023-03-07T02:49:47.938Z,94.92
2023-03-07T02:50:47.923Z,94.54
2023-03-07T02:51:47.907Z,94.70
2023-03-07T02:52:47.904Z,94.43
2023-03-07T02:53:47.891Z,94.64
2023-03-07T02:54:47.893Z,94.75
2023-03-07T02:55:47.866Z,94.75
2023-03-07T02:56:47.857Z,94.75
2023-03-07T02:57:47.845Z,94.75
2023-03-07T02:58:47.839Z,94.43
2023-03-07T02:59:47.822Z,94.92
2023-03-07T03:00:47.822Z,95.37
2023-03-07T03:01:47.835Z,95.23
2023-03-07T03:02:47.800Z,95.37
2023-03-07T03:03:47.790Z,95.43
2023-03-07T03:04:47.824Z,94.85
2023-03-07T03:05:47.778Z,95.58
2023-03-07T03:06:47.755Z,95.27
2023-03-07T03:07:47.746Z,95.27
2023-03-07T03:08:47.733Z,95.68
2023-03-07T03:09:47.729Z,95.27
2023-03-07T03:10:47.830Z,95.75
2023-03-07T03:11:47.712Z,95.58
2023-03-07T03:12:47.691Z,95.64
2023-03-07T03:13:47.697Z,95.54
2023-03-07T03:14:47.670Z,95.43
2023-03-07T03:15:47.747Z,95.23
2023-03-07T03:16:47.654Z,95.23
2023-03-07T03:17:47.651Z,95.33
2023-03-07T03:18:47.634Z,95.33
2023-03-07T03:19:47.627Z,94.39
2023-03-07T03:20:47.630Z,95.12
2023-03-07T03:21:47.609Z,94.81
2023-03-07T03:22:47.616Z,95.43
2023-03-07T03:23:47.599Z,95.23
2023-03-07T03:24:47.596Z,95.02
2023-03-07T03:25:47.573Z,95.33
2023-03-07T03:26:47.561Z,95.43
2023-03-07T03:27:47.547Z,95.33
2023-03-07T03:28:47.532Z,95.23
2023-03-07T03:29:47.525Z,95.23
2023-03-07T03:30:47.524Z,95.54
2023-03-07T03:31:47.506Z,95.54
2023-03-07T03:32:47.496Z,95.12
2023-03-07T03:33:47.481Z,95.85
2023-03-07T03:34:47.465Z,95.75
2023-03-07T03:35:47.508Z,95.85
2023-03-07T03:36:47.448Z,95.54
2023-03-07T03:37:47.432Z,95.64
2023-03-07T03:38:47.421Z,95.12
2023-03-07T03:39:47.416Z,95.33
2023-03-07T03:40:47.409Z,95.54
2023-03-07T03:41:47.393Z,95.79
2023-03-07T03:42:47.464Z,95.43
2023-03-07T03:43:47.373Z,95.23
2023-03-07T03:44:47.359Z,95.54
2023-03-07T03:45:47.371Z,95.23
2023-03-07T03:46:47.424Z,95.85
2023-03-07T03:47:47.331Z,96.37
2023-03-07T03:48:47.319Z,96.00
2023-03-07T03:49:47.309Z,96.62
2023-03-07T03:50:47.306Z,96.52
2023-03-07T03:51:47.289Z,96.00
2023-03-07T03:52:47.283Z,96.26
2023-03-07T03:53:47.272Z,96.37
2023-03-07T03:54:47.274Z,96.37
2023-03-07T03:55:47.251Z,96.16
2023-03-07T03:56:47.274Z,96.58
2023-03-07T03:57:47.226Z,96.26
2023-03-07T03:58:47.214Z,96.06
2023-03-07T03:59:47.202Z,95.75
2023-03-07T04:00:47.196Z,95.64
2023-03-07T04:01:47.294Z,95.95
2023-03-07T04:02:47.337Z,95.43
2023-03-07T04:03:47.169Z,95.33
2023-03-07T04:04:47.152Z,95.54
2023-03-07T04:05:47.149Z,95.06
2023-03-07T04:06:47.141Z,95.43
2023-03-07T04:07:47.125Z,95.75
2023-03-07T04:08:47.108Z,95.85
2023-03-07T04:09:47.103Z,95.43
2023-03-07T04:10:47.088Z,95.54
2023-03-07T04:11:47.085Z,95.54
2023-03-07T04:12:47.066Z,95.85
2023-03-07T04:13:47.056Z,95.33
2023-03-07T04:14:47.056Z,95.81
2023-03-07T04:15:47.033Z,95.54
2023-03-07T04:16:47.170Z,95.70
2023-03-07T04:17:47.010Z,95.39
2023-03-07T04:18:46.998Z,95.39
2023-03-07T04:19:46.989Z,95.50
2023-03-07T04:20:46.976Z,95.29
2023-03-07T04:21:46.980Z,95.70
2023-03-07T04:22:46.956Z,95.12
2023-03-07T04:23:46.947Z,95.18
2023-03-07T04:24:46.937Z,95.18
2023-03-07T04:25:46.945Z,95.29
2023-03-07T04:26:46.925Z,95.18
2023-03-07T04:27:46.910Z,95.39
2023-03-07T04:28:46.901Z,95.18
2023-03-07T04:29:46.884Z,94.76
2023-03-07T04:30:46.886Z,95.50
2023-03-07T04:31:46.941Z,95.70
2023-03-07T04:32:46.882Z,95.08
2023-03-07T04:33:46.841Z,94.66
2023-03-07T04:34:46.832Z,94.81
2023-03-07T04:35:46.876Z,95.23
2023-03-07T04:36:46.821Z,95.08
2023-03-07T04:37:46.799Z,94.98
2023-03-07T04:38:46.794Z,94.45
2023-03-07T04:39:46.794Z,95.18
2023-03-07T04:40:46.772Z,95.25
2023-03-07T04:41:46.771Z,94.76
2023-03-07T04:42:46.755Z,94.45
2023-03-07T04:43:46.741Z,95.08
2023-03-07T04:44:46.729Z,95.35
2023-03-07T04:45:46.733Z,95.50
2023-03-07T04:46:46.739Z,95.29
2023-03-07T04:47:46.697Z,95.25
2023-03-07T04:48:46.689Z,95.25
2023-03-07T04:49:46.673Z,95.50
2023-03-07T04:50:46.666Z,95.29
2023-03-07T04:51:46.683Z,95.18
2023-03-07T04:52:46.642Z,95.39
2023-03-07T04:53:46.644Z,95.18
2023-03-07T04:54:46.624Z,94.82
2023-03-07T04:55:46.616Z,94.76
2023-03-07T04:56:46.613Z,95.29
2023-03-07T04:57:46.597Z,95.39
2023-03-07T04:58:46.579Z,94.62
2023-03-07T04:59:46.569Z,94.82
2023-03-07T05:00:46.558Z,95.03
2023-03-07T05:01:46.559Z,95.18
2023-03-07T05:02:46.747Z,95.35
2023-03-07T05:03:46.535Z,94.93
2023-03-07T05:04:46.513Z,94.45
2023-03-07T05:05:46.516Z,94.72
2023-03-07T05:06:46.503Z,95.08
2023-03-07T05:07:46.485Z,95.14
2023-03-07T05:08:46.476Z,95.35
2023-03-07T05:09:46.466Z,95.08
2023-03-07T05:10:46.456Z,95.08
2023-03-07T05:11:46.462Z,95.14
2023-03-07T05:12:46.435Z,95.29
2023-03-07T05:13:47.602Z,95.29
2023-03-07T05:14:47.554Z,95.39
2023-03-07T05:15:47.561Z,94.62
2023-03-07T05:16:47.565Z,94.82
2023-03-07T05:17:47.549Z,95.14
2023-03-07T05:18:47.512Z,94.66
2023-03-07T05:19:47.489Z,95.45
2023-03-07T05:20:47.468Z,95.35
2023-03-07T05:21:47.497Z,95.45
2023-03-07T05:22:47.455Z,94.93
2023-03-07T05:23:47.448Z,95.60
2023-03-07T05:24:47.423Z,95.70
2023-03-07T05:25:47.419Z,95.25
2023-03-07T05:26:47.425Z,95.35
2023-03-07T05:27:47.399Z,95.81
2023-03-07T05:28:47.382Z,95.70
2023-03-07T05:29:47.378Z,95.25
2023-03-07T05:30:47.417Z,95.03
2023-03-07T05:31:47.370Z,95.25
2023-03-07T05:32:47.369Z,94.93
2023-03-07T05:33:47.338Z,94.72
2023-03-07T05:34:47.334Z,94.93
2023-03-07T05:35:47.341Z,95.03
2023-03-07T05:36:47.310Z,94.62
2023-03-07T05:37:47.312Z,94.62
2023-03-07T05:38:47.298Z,94.62
2023-03-07T05:39:47.282Z,94.10
2023-03-07T05:40:47.274Z,94.93
2023-03-07T05:41:47.273Z,95.03
2023-03-07T05:42:47.267Z,94.62
2023-03-07T05:43:47.247Z,94.93
2023-03-07T05:44:47.242Z,94.62
2023-03-07T05:45:47.230Z,94.57
2023-03-07T05:46:47.237Z,94.26
2023-03-07T05:47:47.224Z,94.26
2023-03-07T05:48:47.190Z,94.26
2023-03-07T05:49:48.190Z,94.57
2023-03-07T05:50:47.180Z,94.37
2023-03-07T05:51:47.177Z,94.16
2023-03-07T05:52:47.171Z,94.57
2023-03-07T05:53:47.147Z,94.47
2023-03-07T05:54:47.142Z,94.16
2023-03-07T05:55:47.130Z,94.31
2023-03-07T05:56:47.120Z,94.78
2023-03-07T05:57:47.117Z,93.85
2023-03-07T05:58:47.094Z,94.37
2023-03-07T05:59:47.088Z,94.16
2023-03-07T06:00:47.082Z,94.37
2023-03-07T06:01:47.065Z,94.06
2023-03-07T06:02:47.165Z,94.78
2023-03-07T06:03:47.078Z,94.57
2023-03-07T06:04:47.061Z,94.78
2023-03-07T06:05:47.037Z,94.37
2023-03-07T06:06:47.050Z,93.33
2023-03-07T06:07:47.024Z,94.06
2023-03-07T06:08:47.012Z,94.47
2023-03-07T06:09:46.986Z,94.06
2023-03-07T06:10:46.978Z,94.26
2023-03-07T06:11:46.970Z,94.47
2023-03-07T06:12:46.972Z,94.37
2023-03-07T06:13:46.949Z,94.06
2023-03-07T06:14:46.954Z,94.12
2023-03-07T06:15:46.935Z,94.32
2023-03-07T06:16:46.925Z,94.26
2023-03-07T06:17:46.920Z,93.91
2023-03-07T06:18:46.902Z,93.49
2023-03-07T06:19:46.899Z,94.74
2023-03-07T06:20:46.881Z,94.26
2023-03-07T06:21:46.866Z,93.70
2023-03-07T06:22:46.878Z,94.22
2023-03-07T06:23:46.850Z,94.22
2023-03-07T06:24:46.845Z,93.91
2023-03-07T06:25:46.830Z,93.39
2023-03-07T06:26:46.824Z,94.01
2023-03-07T06:27:46.818Z,94.01
2023-03-07T06:28:46.803Z,93.80
2023-03-07T06:29:46.799Z,93.18
2023-03-07T06:30:46.788Z,93.29
2023-03-07T06:31:46.874Z,93.49
2023-03-07T06:32:46.780Z,93.07
2023-03-07T06:33:46.764Z,93.18
2023-03-07T06:34:46.745Z,93.18
2023-03-07T06:35:46.757Z,93.29
2023-03-07T06:36:46.726Z,93.18
2023-03-07T06:37:46.725Z,92.82
2023-03-07T06:38:46.808Z,92.72
2023-03-07T06:39:46.699Z,92.76
2023-03-07T06:40:46.692Z,92.51
2023-03-07T06:41:46.679Z,93.60
2023-03-07T06:42:46.970Z,92.82
2023-03-07T06:43:46.677Z,92.24
2023-03-07T06:44:46.712Z,92.51
2023-03-07T06:45:46.665Z,92.41
2023-03-07T06:46:46.627Z,92.82
2023-03-07T06:47:46.627Z,92.61
2023-03-07T06:48:46.612Z,92.72
2023-03-07T06:49:46.595Z,92.93
2023-03-07T06:50:46.585Z,92.82
2023-03-07T06:51:46.603Z,92.93
2023-03-07T06:52:46.600Z,92.61
2023-03-07T06:53:46.563Z,92.30
2023-03-07T06:54:46.586Z,92.10
2023-03-07T06:55:46.544Z,91.68
2023-03-07T06:56:46.529Z,91.78
2023-03-07T06:57:46.537Z,92.16
2023-03-07T06:58:46.516Z,91.89
2023-03-07T06:59:46.501Z,92.20
2023-03-07T07:00:46.489Z,92.93
2023-03-07T07:01:46.600Z,91.89
2023-03-07T07:02:46.604Z,91.53
2023-03-07T07:03:46.454Z,91.85
2023-03-07T07:04:47.452Z,92.05
2023-03-07T07:05:46.441Z,91.68
2023-03-07T07:06:46.460Z,92.36
2023-03-07T07:07:46.434Z,91.89
2023-03-07T07:08:46.421Z,92.05
2023-03-07T07:09:46.414Z,91.85
2023-03-07T07:10:46.399Z,91.47
2023-03-07T07:11:46.379Z,92.05
2023-03-07T07:12:46.413Z,90.91
2023-03-07T07:13:46.361Z,91.85
2023-03-07T07:14:46.361Z,90.97
2023-03-07T07:15:46.341Z,91.02
2023-03-07T07:16:46.428Z,90.81
2023-03-07T07:17:46.338Z,90.87
2023-03-07T07:18:46.316Z,90.66
2023-03-07T07:19:46.304Z,90.56
2023-03-07T07:20:46.296Z,90.25
2023-03-07T07:21:46.292Z,90.66
2023-03-07T07:22:46.280Z,91.60
2023-03-07T07:23:46.263Z,91.91
2023-03-07T07:24:46.264Z,91.18
2023-03-07T07:25:46.241Z,91.18
2023-03-07T07:26:46.234Z,90.04
2023-03-07T07:27:46.234Z,89.94
2023-03-07T07:28:46.213Z,90.52
2023-03-07T07:29:46.211Z,90.72
2023-03-07T07:30:46.186Z,90.93
2023-03-07T07:31:46.252Z,90.20
2023-03-07T07:32:46.308Z,90.41
2023-03-07T07:33:46.158Z,90.41
2023-03-07T07:34:46.157Z,89.89
2023-03-07T07:35:46.168Z,90.41
2023-03-07T07:36:46.145Z,90.31
2023-03-07T07:37:46.134Z,90.10
2023-03-07T07:38:46.110Z,89.58
2023-03-07T07:39:46.110Z,90.52
2023-03-07T07:40:46.097Z,90.41
2023-03-07T07:41:46.092Z,89.69
2023-03-07T07:42:46.090Z,88.54
2023-03-07T07:43:46.069Z,88.02
2023-03-07T07:44:46.056Z,87.92
2023-03-07T07:45:46.155Z,89.89
2023-03-07T07:46:46.036Z,90.00
2023-03-07T07:47:46.037Z,88.23
2023-03-07T07:48:46.016Z,89.37
2023-03-07T07:49:46.011Z,87.92
2023-03-07T07:50:45.999Z,87.92
2023-03-07T07:51:45.994Z,88.23
2023-03-07T07:52:45.994Z,88.85
2023-03-07T07:53:45.979Z,87.99
2023-03-07T07:54:45.962Z,88.65
2023-03-07T07:55:45.956Z,88.44
2023-03-07T07:56:45.942Z,88.54
2023-03-07T07:57:45.941Z,88.54
2023-03-07T07:58:45.926Z,87.92
2023-03-07T07:59:45.918Z,87.82
2023-03-07T08:00:45.906Z,88.96
2023-03-07T08:01:45.894Z,88.34
2023-03-07T08:02:45.929Z,88.71
2023-03-07T08:03:45.934Z,88.44
2023-03-07T08:04:45.871Z,89.27
2023-03-07T08:05:45.854Z,88.51
2023-03-07T08:06:45.842Z,88.02
2023-03-07T08:07:45.846Z,87.71
2023-03-07T08:08:45.819Z,87.57
2023-03-07T08:09:45.812Z,88.71
2023-03-07T08:10:45.804Z,87.71
2023-03-07T08:11:45.795Z,87.82
2023-03-07T08:12:45.795Z,87.57
2023-03-07T08:13:45.784Z,88.02
2023-03-07T08:14:45.774Z,88.96
2023-03-07T08:15:45.773Z,89.54
2023-03-07T08:16:45.746Z,89.69
2023-03-07T08:17:45.745Z,90.27
2023-03-07T08:18:45.729Z,88.65
2023-03-07T08:19:45.715Z,88.02
2023-03-07T08:20:45.722Z,88.20
2023-03-07T08:21:45.704Z,88.02
2023-03-07T08:22:45.683Z,88.20
2023-03-07T08:23:45.692Z,89.44
2023-03-07T08:24:45.664Z,86.95
2023-03-07T08:25:45.655Z,87.88
2023-03-07T08:26:45.658Z,87.32
2023-03-07T08:27:45.645Z,87.99
2023-03-07T08:28:45.651Z,87.88
2023-03-07T08:29:45.623Z,87.16
2023-03-07T08:30:45.622Z,87.57
2023-03-07T08:31:45.609Z,87.12
2023-03-07T08:32:45.655Z,87.37
2023-03-07T08:33:45.587Z,87.16
2023-03-07T08:34:45.569Z,87.57
2023-03-07T08:35:45.637Z,87.88
2023-03-07T08:36:45.546Z,87.88
2023-03-07T08:37:45.539Z,86.95
2023-03-07T08:38:45.548Z,87.43
2023-03-07T08:39:45.530Z,87.95
2023-03-07T08:40:45.512Z,86.80
2023-03-07T08:41:45.510Z,86.70
2023-03-07T08:42:45.540Z,87.01
2023-03-07T08:43:45.507Z,87.53
2023-03-07T08:44:45.522Z,86.80
2023-03-07T08:45:45.460Z,87.12
2023-03-07T08:46:45.447Z,88.26
2023-03-07T08:47:45.444Z,86.80
2023-03-07T08:48:45.445Z,86.70
2023-03-07T08:49:45.414Z,86.60
2023-03-07T08:50:45.404Z,86.18
2023-03-07T08:51:45.393Z,86.08
2023-03-07T08:52:45.384Z,86.49
2023-03-07T08:53:45.390Z,85.77
2023-03-07T08:54:45.361Z,85.94
2023-03-07T08:55:45.359Z,85.66
2023-03-07T08:56:45.361Z,86.08
2023-03-07T08:57:45.334Z,85.11
2023-03-07T08:58:45.333Z,85.73
2023-03-07T08:59:45.314Z,85.73
2023-03-07T09:00:45.301Z,85.83
2023-03-07T09:01:45.343Z,85.00
2023-03-07T09:02:45.329Z,84.28
2023-03-07T09:03:45.285Z,84.80
2023-03-07T09:04:45.348Z,84.38
2023-03-07T09:05:45.261Z,84.28
2023-03-07T09:06:45.256Z,85.31
2023-03-07T09:07:45.234Z,85.06
2023-03-07T09:08:45.229Z,85.11
2023-03-07T09:09:45.213Z,85.17
2023-03-07T09:10:45.207Z,83.41
2023-03-07T09:11:45.189Z,83.31
2023-03-07T09:12:45.183Z,82.27
2023-03-07T09:13:51.796Z,83.14
2023-03-07T09:14:47.169Z,83.26
2023-03-07T09:15:45.176Z,82.58
2023-03-07T09:16:45.146Z,83.31
2023-03-07T09:17:45.138Z,83.51
2023-03-07T09:18:45.138Z,83.20
2023-03-07T09:19:45.107Z,83.83
2023-03-07T09:20:45.106Z,83.26
2023-03-07T09:21:45.092Z,82.68
2023-03-07T09:22:45.078Z,82.86
2023-03-07T09:23:45.099Z,82.75
2023-03-07T09:24:45.069Z,82.75
2023-03-07T09:25:45.057Z,82.44
2023-03-07T09:26:45.048Z,81.20
2023-03-07T09:27:45.034Z,81.47
2023-03-07T09:28:45.032Z,80.78
2023-03-07T09:29:45.017Z,81.05
2023-03-07T09:30:45.009Z,81.84
2023-03-07T09:31:45.053Z,82.88
2023-03-07T09:32:44.980Z,79.67
2023-03-07T09:33:46.845Z,78.02
2023-03-07T09:34:45.982Z,79.05
2023-03-07T09:35:44.975Z,78.74
2023-03-07T09:36:44.952Z,78.33
2023-03-07T09:37:44.935Z,78.64
2023-03-07T09:38:44.934Z,80.15
2023-03-07T09:39:44.914Z,78.70
2023-03-07T09:40:44.909Z,78.77
2023-03-07T09:41:44.891Z,78.98
2023-03-07T09:42:44.891Z,76.81
2023-03-07T09:43:44.886Z,78.25
2023-03-07T09:44:44.873Z,78.77
2023-03-07T09:45:44.862Z,77.43
2023-03-07T09:46:44.850Z,77.64
2023-03-07T09:47:44.844Z,77.12
2023-03-07T09:48:44.836Z,77.33
2023-03-07T09:49:44.813Z,78.56
2023-03-07T09:50:44.815Z,77.33
2023-03-07T09:51:44.821Z,76.70
2023-03-07T09:52:44.790Z,75.74
2023-03-07T09:53:44.800Z,75.98
2023-03-07T09:54:44.766Z,76.46
2023-03-07T09:55:44.772Z,76.84
2023-03-07T09:56:44.752Z,75.29
2023-03-07T09:57:44.735Z,76.08
2023-03-07T09:58:44.754Z,77.11
2023-03-07T09:59:44.728Z,76.39
2023-03-07T10:00:44.707Z,74.63
2023-03-07T10:01:44.702Z,74.84
2023-03-07T10:02:44.727Z,76.29
2023-03-07T10:03:44.724Z,74.63
2023-03-07T10:04:44.706Z,74.74
2023-03-07T10:05:44.666Z,73.12
2023-03-07T10:06:44.651Z,73.22
2023-03-07T10:07:44.646Z,74.50
2023-03-07T10:08:44.650Z,74.08
2023-03-07T10:09:44.618Z,73.98
2023-03-07T10:10:44.610Z,75.36
2023-03-07T10:11:44.756Z,74.60
2023-03-07T10:12:44.592Z,75.74
2023-03-07T10:13:44.600Z,75.43
2023-03-07T10:14:44.595Z,75.63
2023-03-07T10:15:44.588Z,75.63
2023-03-07T10:16:44.634Z,76.46
2023-03-07T10:17:44.543Z,75.32
2023-03-07T10:18:44.572Z,75.84
2023-03-07T10:19:44.527Z,74.60
2023-03-07T10:20:44.526Z,75.95
2023-03-07T10:21:44.507Z,76.05
2023-03-07T10:22:44.507Z,77.08
2023-03-07T10:23:44.501Z,76.15
2023-03-07T10:24:44.478Z,77.50
2023-03-07T10:25:44.461Z,74.81
2023-03-07T10:26:44.455Z,74.53
2023-03-07T10:27:44.442Z,75.88
2023-03-07T10:28:44.452Z,75.98
2023-03-07T10:29:44.428Z,77.22
2023-03-07T10:30:44.416Z,77.12
2023-03-07T10:31:44.442Z,77.60
2023-03-07T10:32:44.452Z,76.15
2023-03-07T10:33:44.390Z,77.39
2023-03-07T10:34:44.462Z,78.74
2023-03-07T10:35:44.434Z,76.15
2023-03-07T10:36:44.366Z,76.56
2023-03-07T10:37:44.340Z,75.01
2023-03-07T10:38:44.347Z,73.98
2023-03-07T10:39:44.361Z,74.91
2023-03-07T10:40:44.309Z,76.81
2023-03-07T10:41:44.341Z,76.67
2023-03-07T10:42:44.290Z,77.64
2023-03-07T10:43:44.285Z,76.60
2023-03-07T10:44:44.277Z,76.81
2023-03-07T10:45:44.286Z,76.29
2023-03-07T10:46:55.329Z,77.60
2023-03-07T10:47:46.281Z,77.70
2023-03-07T10:48:44.238Z,76.39
2023-03-07T10:49:44.229Z,76.09
2023-03-07T10:50:44.213Z,77.74
2023-03-07T10:51:44.214Z,77.43
2023-03-07T10:52:44.204Z,78.50
2023-03-07T10:53:44.183Z,78.36
2023-03-07T10:54:44.180Z,78.15
2023-03-07T10:55:44.168Z,78.88
2023-03-07T10:56:44.172Z,78.29
2023-03-07T10:57:44.149Z,78.19
2023-03-07T10:58:44.138Z,78.60
2023-03-07T10:59:44.135Z,78.53
2023-03-07T11:00:44.112Z,79.26
2023-03-07T11:01:44.193Z,80.57
2023-03-07T11:02:44.103Z,78.81
2023-03-07T11:03:52.475Z,79.02
2023-03-07T11:04:46.298Z,80.53
2023-03-07T11:05:44.064Z,80.57
2023-03-07T11:06:44.074Z,80.98
2023-03-07T11:07:44.045Z,79.94
2023-03-07T11:08:44.037Z,82.64
2023-03-07T11:09:44.041Z,82.39
2023-03-07T11:10:44.009Z,83.01
2023-03-07T11:11:44.003Z,81.25
2023-03-07T11:12:43.980Z,80.98
2023-03-07T11:13:45.000Z,81.39
2023-03-07T11:14:44.004Z,82.64
2023-03-07T11:15:43.970Z,82.53
2023-03-07T11:16:44.021Z,81.19
2023-03-07T11:17:43.962Z,82.39
2023-03-07T11:18:43.955Z,82.50
2023-03-07T11:19:43.947Z,83.15
2023-03-07T11:20:43.984Z,82.84
2023-03-07T11:21:43.925Z,80.53
2023-03-07T11:22:43.945Z,80.77
2023-03-07T11:23:43.932Z,81.60
2023-03-07T11:24:43.877Z,83.15
2023-03-07T11:25:43.888Z,82.12
2023-03-07T11:26:43.881Z,83.05
2023-03-07T11:27:43.905Z,84.81
2023-03-07T11:28:43.854Z,84.12
2023-03-07T11:29:43.841Z,84.74
2023-03-07T11:30:43.844Z,85.78
2023-03-07T11:31:43.806Z,86.15
2023-03-07T11:32:44.846Z,85.05
2023-03-07T11:33:56.727Z,85.05
2023-03-07T11:34:45.783Z,85.78
2023-03-07T11:35:43.778Z,86.29
2023-03-07T11:36:43.763Z,85.78
2023-03-07T11:37:43.752Z,85.57
2023-03-07T11:38:43.748Z,86.65
2023-03-07T11:39:43.739Z,88.26
2023-03-07T11:40:43.835Z,87.43
2023-03-07T11:41:43.737Z,87.43
2023-03-07T11:42:43.745Z,87.54
2023-03-07T11:43:43.697Z,87.91
2023-03-07T11:44:43.707Z,86.77
2023-03-07T11:45:43.670Z,86.40
2023-03-07T11:46:43.743Z,86.91
2023-03-07T11:47:43.646Z,86.91
2023-03-07T11:48:43.642Z,86.29
2023-03-07T11:49:43.628Z,87.12
2023-03-07T11:50:43.633Z,87.43
2023-03-07T11:51:43.630Z,85.68
2023-03-07T11:52:43.612Z,86.40
2023-03-07T11:53:43.609Z,88.06
2023-03-07T11:54:43.584Z,86.81
2023-03-07T11:55:43.573Z,86.19
2023-03-07T11:56:43.568Z,86.09
2023-03-07T11:57:43.558Z,87.12
2023-03-07T11:58:43.549Z,87.95
2023-03-07T11:59:43.548Z,86.29
2023-03-07T12:00:43.521Z,86.71
2023-03-07T12:01:43.501Z,86.81
2023-03-07T12:02:43.561Z,86.77
2023-03-07T12:03:43.496Z,86.46
2023-03-07T12:04:43.476Z,86.46
2023-03-07T12:05:43.509Z,86.32
2023-03-07T12:06:43.458Z,84.77
2023-03-07T12:07:43.448Z,84.56
2023-03-07T12:08:43.432Z,84.97
2023-03-07T12:09:43.432Z,83.94
2023-03-07T12:10:43.414Z,83.63
2023-03-07T12:11:43.399Z,83.84
2023-03-07T12:12:43.386Z,83.63
2023-03-07T12:13:43.379Z,83.70
2023-03-07T12:14:43.383Z,83.18
2023-03-07T12:15:43.369Z,83.90
2023-03-07T12:16:43.408Z,83.65
2023-03-07T12:17:43.343Z,83.34
2023-03-07T12:18:43.335Z,82.69
2023-03-07T12:19:43.329Z,81.59
2023-03-07T12:20:43.332Z,81.28
2023-03-07T12:21:43.304Z,82.79
2023-03-07T12:22:43.296Z,83.48
2023-03-07T12:23:43.289Z,82.20
2023-03-07T12:24:43.298Z,80.34
2023-03-07T12:25:43.259Z,80.04
2023-03-07T12:26:43.251Z,79.04
2023-03-07T12:27:43.247Z,80.52
2023-03-07T12:28:43.232Z,80.48
2023-03-07T12:29:43.237Z,80.42
2023-03-07T12:30:43.220Z,78.05
2023-03-07T12:31:43.264Z,80.56
2023-03-07T12:32:43.406Z,81.56
2023-03-07T12:33:43.181Z,81.07
2023-03-07T12:34:43.171Z,80.46
2023-03-07T12:35:43.231Z,81.11
2023-03-07T12:36:43.262Z,81.80
2023-03-07T12:37:43.162Z,82.62
2023-03-07T12:38:43.128Z,80.97
2023-03-07T12:39:43.116Z,82.25
2023-03-07T12:40:43.118Z,81.42
2023-03-07T12:41:43.114Z,81.11
2023-03-07T12:42:43.089Z,80.49
2023-03-07T12:43:43.078Z,81.21
2023-03-07T12:44:43.071Z,80.18
2023-03-07T12:45:43.203Z,81.01
2023-03-07T12:46:43.054Z,81.38
2023-03-07T12:47:43.036Z,82.04
2023-03-07T12:48:43.038Z,82.00
2023-03-07T12:49:49.737Z,82.45
2023-03-07T12:50:45.016Z,81.70
2023-03-07T12:51:42.989Z,80.49
2023-03-07T12:52:42.981Z,81.32
2023-03-07T12:53:42.974Z,81.84